createdAt,value
2019-03-01T00:01:50.546Z,6.57
2019-03-01T00:04:23.336Z,5.93
2019-03-01T00:07:12.642Z,5.90
2019-03-01T00:09:54.218Z,4.87
2019-03-01T00:13:07.758Z,5.43
2019-03-01T00:16:10.850Z,7.30
2019-03-01T00:19:23.430Z,6.67
2019-03-01T00:22:35.030Z,11.27
2019-03-01T00:25:36.690Z,7.23
2019-03-01T00:28:39.477Z,7.93
2019-03-01T00:31:28.726Z,1.77
2019-03-01T00:34:30.918Z,3.70
2019-03-01T00:37:27.851Z,9.70
2019-03-01T00:40:11.534Z,3.90
2019-03-01T00:43:15.004Z,6.53
2019-03-01T00:45:43.754Z,5.10
2019-03-01T00:48:12.069Z,8.87
2019-03-01T00:50:40.441Z,6.37
2019-03-01T00:53:08.605Z,10.80
2019-03-01T00:55:36.570Z,6.00
2019-03-01T00:58:05.270Z,10.63
2019-03-01T01:00:38.425Z,3.57
2019-03-01T01:03:06.346Z,7.13
2019-03-01T01:05:34.693Z,5.80
2019-03-01T01:08:02.779Z,6.27
2019-03-01T01:10:30.937Z,8.67
2019-03-01T01:12:58.910Z,3.17
2019-03-01T01:15:27.129Z,4.50
2019-03-01T01:17:55.654Z,4.30
2019-03-01T01:20:24.325Z,7.13
2019-03-01T01:22:53.322Z,10.83
2019-03-01T01:25:21.535Z,3.93
2019-03-01T01:27:49.828Z,3.10
2019-03-01T01:30:17.997Z,4.37
2019-03-01T01:32:45.962Z,3.23
2019-03-01T01:35:14.146Z,8.23
2019-03-01T01:37:42.110Z,9.90
2019-03-01T01:40:10.489Z,7.03
2019-03-01T01:42:38.879Z,15.93
2019-03-01T01:45:07.876Z,10.93
2019-03-01T01:47:36.236Z,8.27
2019-03-01T01:50:05.093Z,9.20
2019-03-01T01:52:33.973Z,4.20
2019-03-01T01:55:02.063Z,5.17
2019-03-01T01:57:30.339Z,12.33
2019-03-01T01:59:58.729Z,6.33
2019-03-01T02:02:27.082Z,12.87
2019-03-01T02:04:55.485Z,12.70
2019-03-01T02:07:23.550Z,6.03
2019-03-01T02:09:51.706Z,5.63
2019-03-01T02:12:20.306Z,8.63
2019-03-01T02:14:48.376Z,9.53
2019-03-01T02:17:20.110Z,8.20
2019-03-01T02:19:48.512Z,7.67
2019-03-01T02:22:16.938Z,11.80
2019-03-01T02:24:45.574Z,12.17
2019-03-01T02:27:24.321Z,9.33
2019-03-01T02:29:52.803Z,11.00
2019-03-01T02:32:32.234Z,15.37
2019-03-01T02:35:00.477Z,8.17
2019-03-01T02:37:28.989Z,7.97
2019-03-01T02:39:57.276Z,10.13
2019-03-01T02:42:25.163Z,20.17
2019-03-01T02:44:53.190Z,10.37
2019-03-01T02:47:21.746Z,7.50
2019-03-01T02:49:49.662Z,11.67
2019-03-01T02:52:18.034Z,10.67
2019-03-01T02:54:46.107Z,12.63
2019-03-01T02:57:14.485Z,9.23
2019-03-01T02:59:42.579Z,15.43
2019-03-01T03:02:11.216Z,12.33
2019-03-01T03:04:39.309Z,12.00
2019-03-01T03:07:22.615Z,11.10
2019-03-01T03:09:51.108Z,16.03
2019-03-01T03:12:19.203Z,8.80
2019-03-01T03:14:47.578Z,7.87
2019-03-01T03:17:15.936Z,9.40
2019-03-01T03:19:44.127Z,17.60
2019-03-01T03:22:12.403Z,15.27
2019-03-01T03:24:40.779Z,12.97
2019-03-01T03:27:09.161Z,8.60
2019-03-01T03:29:37.215Z,14.40
2019-03-01T03:32:06.199Z,12.33
2019-03-01T03:34:34.683Z,8.17
2019-03-01T03:37:02.955Z,8.23
2019-03-01T03:39:31.719Z,11.70
2019-03-01T03:41:59.838Z,9.53
2019-03-01T03:44:28.309Z,16.73
2019-03-01T03:46:56.263Z,17.87
2019-03-01T03:49:24.563Z,14.63
2019-03-01T03:51:55.464Z,8.83
2019-03-01T03:54:23.763Z,12.90
2019-03-01T03:56:52.285Z,23.03
2019-03-01T03:59:20.515Z,10.50
2019-03-01T04:01:48.920Z,10.47
2019-03-01T04:04:16.974Z,9.27
2019-03-01T04:06:45.859Z,10.57
2019-03-01T04:09:14.056Z,11.30
2019-03-01T04:11:42.102Z,13.63
2019-03-01T04:14:10.523Z,13.77
2019-03-01T04:16:38.227Z,8.60
2019-03-01T04:19:06.336Z,13.20
2019-03-01T04:21:36.724Z,9.07
2019-03-01T04:24:08.853Z,8.27
2019-03-01T04:26:36.762Z,13.27
2019-03-01T04:29:20.227Z,9.57
2019-03-01T04:31:48.205Z,11.40
2019-03-01T04:34:16.228Z,17.67
2019-03-01T04:36:50.704Z,11.73
2019-03-01T04:39:18.653Z,9.57
2019-03-01T04:41:46.716Z,14.80
2019-03-01T04:44:14.909Z,13.43
2019-03-01T04:46:42.870Z,6.40
2019-03-01T04:49:10.916Z,9.57
2019-03-01T04:51:40.347Z,11.40
2019-03-01T04:54:08.597Z,7.40
2019-03-01T04:56:37.023Z,10.80
2019-03-01T04:59:05.107Z,15.90
2019-03-01T05:01:33.234Z,18.57
2019-03-01T05:04:01.199Z,11.13
2019-03-01T05:06:29.417Z,13.87
2019-03-01T05:08:57.779Z,13.47
2019-03-01T05:11:26.203Z,12.13
2019-03-01T05:13:53.926Z,11.43
2019-03-01T05:16:22.450Z,11.77
2019-03-01T05:18:51.360Z,19.90
2019-03-01T05:21:19.068Z,9.57
2019-03-01T05:23:47.340Z,13.63
2019-03-01T05:26:16.030Z,15.23
2019-03-01T05:28:44.076Z,9.97
2019-03-01T05:31:13.363Z,10.10
2019-03-01T05:33:41.765Z,8.97
2019-03-01T05:36:09.819Z,17.33
2019-03-01T05:38:40.642Z,14.83
2019-03-01T05:41:09.038Z,12.53
2019-03-01T05:43:36.716Z,3.87
2019-03-01T05:46:04.482Z,10.37
2019-03-01T05:48:32.141Z,3.93
2019-03-01T05:51:00.667Z,6.00
2019-03-01T05:53:28.601Z,13.83
2019-03-01T05:55:56.848Z,6.77
2019-03-01T05:58:43.075Z,17.37
2019-03-01T06:01:39.125Z,7.77
2019-03-01T06:04:20.190Z,14.40
2019-03-01T06:07:23.669Z,10.17
2019-03-01T06:10:05.944Z,22.00
2019-03-01T06:13:02.603Z,19.57
2019-03-01T06:16:01.106Z,16.53
2019-03-01T06:19:12.759Z,10.77
2019-03-01T06:22:24.995Z,9.57
2019-03-01T06:25:30.900Z,7.67
2019-03-01T06:28:42.106Z,9.93
2019-03-01T06:31:39.901Z,12.03
2019-03-01T06:34:33.315Z,7.57
2019-03-01T06:37:52.251Z,9.50
2019-03-01T06:41:20.998Z,14.77
2019-03-01T06:44:07.613Z,12.17
2019-03-01T06:47:01.527Z,7.47
2019-03-01T06:49:47.530Z,15.10
2019-03-01T06:52:16.591Z,19.97
2019-03-01T06:54:44.306Z,7.40
2019-03-01T06:57:12.052Z,12.73
2019-03-01T06:59:39.761Z,14.40
2019-03-01T07:02:08.361Z,5.90
2019-03-01T07:04:36.068Z,11.80
2019-03-01T07:07:03.818Z,13.20
2019-03-01T07:09:31.527Z,12.83
2019-03-01T07:11:59.355Z,14.87
2019-03-01T07:14:27.074Z,12.40
2019-03-01T07:16:55.102Z,12.93
2019-03-01T07:19:23.351Z,21.53
2019-03-01T07:21:51.141Z,14.87
2019-03-01T07:24:18.917Z,21.23
2019-03-01T07:26:47.278Z,11.90
2019-03-01T07:29:14.997Z,12.53
2019-03-01T07:31:42.714Z,14.07
2019-03-01T07:34:10.463Z,14.50
2019-03-01T07:36:38.306Z,8.33
2019-03-01T07:39:18.296Z,14.43
2019-03-01T07:41:46.036Z,19.13
2019-03-01T07:44:13.761Z,14.47
2019-03-01T07:46:41.789Z,9.17
2019-03-01T07:49:09.535Z,21.20
2019-03-01T07:51:37.292Z,19.13
2019-03-01T07:54:05.005Z,12.80
2019-03-01T07:56:33.053Z,16.23
2019-03-01T07:59:01.158Z,14.07
2019-03-01T08:01:29.849Z,13.40
2019-03-01T08:03:57.743Z,22.43
2019-03-01T08:06:25.469Z,14.80
2019-03-01T08:08:53.165Z,18.57
2019-03-01T08:11:20.835Z,13.97
2019-03-01T08:13:49.416Z,12.27
2019-03-01T08:16:20.125Z,26.83
2019-03-01T08:18:47.560Z,23.60
2019-03-01T08:21:15.244Z,16.33
2019-03-01T08:23:42.903Z,19.83
2019-03-01T08:26:10.653Z,19.80
2019-03-01T08:28:38.334Z,23.97
2019-03-01T08:31:06.021Z,20.70
2019-03-01T08:33:33.690Z,13.70
2019-03-01T08:36:02.357Z,15.43
2019-03-01T08:38:33.313Z,15.20
2019-03-01T08:41:01.272Z,17.13
2019-03-01T08:43:29.388Z,16.23
2019-03-01T08:45:57.138Z,11.57
2019-03-01T08:48:24.809Z,17.90
2019-03-01T08:50:52.543Z,17.77
2019-03-01T08:53:20.238Z,15.40
2019-03-01T08:55:47.966Z,18.60
2019-03-01T08:58:16.727Z,17.33
2019-03-01T09:00:44.479Z,17.33
2019-03-01T09:03:23.144Z,21.80
2019-03-01T09:05:51.159Z,19.80
2019-03-01T09:08:19.509Z,16.60
2019-03-01T09:10:47.767Z,21.40
2019-03-01T09:13:16.302Z,15.83
2019-03-01T09:15:46.062Z,19.87
2019-03-01T09:18:15.429Z,21.07
2019-03-01T09:20:44.024Z,20.13
2019-03-01T09:23:22.915Z,17.30
2019-03-01T09:25:45.353Z,8.00
2019-03-01T09:28:13.555Z,19.37
2019-03-01T09:30:43.473Z,16.80
2019-03-01T09:33:17.143Z,14.57
2019-03-01T09:35:58.573Z,14.10
2019-03-01T09:38:26.826Z,15.07
2019-03-01T09:40:57.343Z,18.50
2019-03-01T09:43:27.835Z,25.33
2019-03-01T09:45:55.350Z,18.17
2019-03-01T09:48:23.907Z,15.13
2019-03-01T09:50:52.005Z,20.27
2019-03-01T09:53:20.122Z,17.17
2019-03-01T09:55:47.842Z,26.97
2019-03-01T09:58:15.588Z,19.00
2019-03-01T10:00:55.644Z,12.43
2019-03-01T10:03:16.355Z,17.70
2019-03-01T10:05:44.318Z,10.17
2019-03-01T10:08:12.016Z,15.97
2019-03-01T10:10:39.714Z,18.47
2019-03-01T10:13:07.705Z,15.77
2019-03-01T10:15:35.898Z,13.50
2019-03-01T10:18:04.237Z,17.63
2019-03-01T10:20:32.560Z,12.17
2019-03-01T10:23:00.903Z,16.77
2019-03-01T10:25:29.037Z,13.77
2019-03-01T10:27:57.060Z,13.80
2019-03-01T10:30:33.987Z,16.63
2019-03-01T10:33:11.795Z,15.20
2019-03-01T10:35:39.913Z,18.23
2019-03-01T10:38:07.754Z,20.83
2019-03-01T10:40:35.490Z,20.87
2019-03-01T10:43:03.214Z,10.07
2019-03-01T10:45:31.061Z,15.53
2019-03-01T10:47:58.930Z,14.40
2019-03-01T10:50:26.662Z,26.23
2019-03-01T10:52:55.198Z,16.77
2019-03-01T10:55:23.727Z,19.87
2019-03-01T10:57:52.365Z,29.30
2019-03-01T11:00:22.529Z,16.00
2019-03-01T11:02:50.859Z,19.60
2019-03-01T11:05:19.063Z,20.80
2019-03-01T11:07:47.996Z,15.57
2019-03-01T11:10:18.862Z,13.10
2019-03-01T11:12:47.007Z,17.23
2019-03-01T11:15:15.340Z,19.73
2019-03-01T11:17:43.362Z,21.93
2019-03-01T11:20:30.843Z,17.13
2019-03-01T11:22:58.895Z,14.17
2019-03-01T11:25:27.242Z,31.90
2019-03-01T11:27:55.593Z,17.77
2019-03-01T11:30:25.776Z,19.03
2019-03-01T11:32:53.693Z,19.37
2019-03-01T11:35:27.914Z,18.80
2019-03-01T11:38:10.554Z,20.90
2019-03-01T11:40:55.862Z,22.10
2019-03-01T11:43:38.066Z,23.50
2019-03-01T11:46:26.127Z,19.10
2019-03-01T11:49:03.725Z,16.90
2019-03-01T11:51:41.753Z,17.27
2019-03-01T11:54:20.835Z,17.90
2019-03-01T11:57:01.181Z,12.17
2019-03-01T11:59:37.454Z,19.50
2019-03-01T12:02:16.218Z,13.47
2019-03-01T12:04:58.127Z,15.60
2019-03-01T12:07:37.520Z,13.97
2019-03-01T12:10:19.857Z,19.20
2019-03-01T12:12:47.609Z,16.37
2019-03-01T12:15:16.341Z,9.97
2019-03-01T12:17:44.366Z,18.63
2019-03-01T12:20:14.400Z,14.93
2019-03-01T12:22:42.691Z,23.37
2019-03-01T12:25:10.971Z,33.83
2019-03-01T12:27:38.859Z,14.27
2019-03-01T12:30:09.786Z,22.77
2019-03-01T12:32:37.773Z,12.73
2019-03-01T12:35:06.113Z,15.57
2019-03-01T12:37:34.482Z,19.03
2019-03-01T12:40:02.668Z,11.37
2019-03-01T12:42:30.817Z,9.30
2019-03-01T12:44:58.538Z,13.00
2019-03-01T12:47:27.104Z,15.73
2019-03-01T12:49:55.447Z,22.27
2019-03-01T12:52:24.199Z,22.50
2019-03-01T12:54:52.205Z,23.37
2019-03-01T12:57:20.311Z,15.60
2019-03-01T12:59:48.102Z,16.20
2019-03-01T13:02:16.248Z,21.20
2019-03-01T13:04:44.257Z,18.60
2019-03-01T13:07:13.246Z,16.13
2019-03-01T13:09:41.891Z,11.37
2019-03-01T13:12:09.589Z,15.93
2019-03-01T13:14:39.453Z,11.80
2019-03-01T13:17:06.897Z,8.57
2019-03-01T13:19:34.679Z,20.20
2019-03-01T13:22:04.523Z,15.17
2019-03-01T13:24:32.239Z,9.67
2019-03-01T13:26:59.955Z,10.40
2019-03-01T13:29:27.710Z,28.43
2019-03-01T13:31:56.083Z,19.63
2019-03-01T13:34:26.673Z,14.45
2019-03-01T13:36:54.935Z,12.07
2019-03-01T13:39:23.226Z,12.77
2019-03-01T13:41:54.114Z,31.17
2019-03-01T13:44:22.226Z,18.77
2019-03-01T13:46:50.067Z,13.03
2019-03-01T13:49:18.079Z,14.27
2019-03-01T13:51:49.370Z,13.20
2019-03-01T13:54:16.174Z,22.00
2019-03-01T13:56:44.422Z,17.33
2019-03-01T13:59:12.521Z,13.67
2019-03-01T14:01:40.992Z,11.77
2019-03-01T14:04:09.582Z,15.97
2019-03-01T14:06:37.940Z,14.37
2019-03-01T14:09:11.685Z,15.07
2019-03-01T14:11:42.796Z,16.33
2019-03-01T14:14:11.426Z,12.33
2019-03-01T14:16:40.494Z,16.57
2019-03-01T14:19:09.113Z,8.97
2019-03-01T14:21:39.211Z,12.30
2019-03-01T14:24:07.250Z,11.47
2019-03-01T14:26:35.454Z,16.33
2019-03-01T14:29:03.611Z,15.80
2019-03-01T14:31:31.631Z,10.87
2019-03-01T14:33:59.840Z,15.27
2019-03-01T14:36:28.016Z,12.13
2019-03-01T14:38:56.641Z,10.13
2019-03-01T14:41:25.101Z,11.00
2019-03-01T14:43:58.649Z,12.70
2019-03-01T14:46:23.220Z,15.20
2019-03-01T14:48:51.441Z,14.00
2019-03-01T14:51:19.523Z,11.83
2019-03-01T14:53:47.896Z,18.67
2019-03-01T14:56:35.884Z,15.87
2019-03-01T14:59:35.149Z,11.73
2019-03-01T15:02:18.154Z,9.77
2019-03-01T15:04:46.746Z,9.53
2019-03-01T15:07:14.627Z,17.87
2019-03-01T15:09:42.862Z,12.00
2019-03-01T15:12:10.780Z,14.90
2019-03-01T15:14:39.176Z,8.10
2019-03-01T15:17:07.230Z,32.60
2019-03-01T15:19:36.390Z,7.83
2019-03-01T15:22:04.469Z,14.40
2019-03-01T15:24:33.171Z,15.77
2019-03-01T15:27:03.971Z,8.20
2019-03-01T15:29:33.145Z,13.80
2019-03-01T15:32:01.030Z,12.00
2019-03-01T15:34:29.211Z,8.27
2019-03-01T15:36:59.175Z,11.53
2019-03-01T15:39:26.738Z,13.03
2019-03-01T15:41:54.462Z,13.07
2019-03-01T15:44:22.457Z,16.83
2019-03-01T15:46:51.060Z,19.53
2019-03-01T15:49:23.708Z,11.67
2019-03-01T15:51:49.383Z,11.00
2019-03-01T15:54:17.492Z,18.50
2019-03-01T15:56:45.601Z,13.30
2019-03-01T15:59:13.731Z,15.73
2019-03-01T16:01:43.619Z,14.83
2019-03-01T16:04:11.640Z,9.03
2019-03-01T16:06:39.357Z,13.10
2019-03-01T16:09:13.722Z,10.73
2019-03-01T16:11:41.438Z,9.63
2019-03-01T16:14:09.164Z,11.43
2019-03-01T16:16:37.212Z,11.53
2019-03-01T16:19:05.247Z,18.40
2019-03-01T16:21:33.847Z,13.40
2019-03-01T16:24:04.980Z,18.47
2019-03-01T16:26:33.530Z,11.47
2019-03-01T16:29:03.898Z,10.57
2019-03-01T16:31:33.027Z,14.63
2019-03-01T16:34:04.372Z,12.47
2019-03-01T16:36:38.437Z,10.83
2019-03-01T16:39:11.165Z,21.37
2019-03-01T16:41:39.740Z,13.50
2019-03-01T16:44:09.647Z,14.20
2019-03-01T16:46:38.191Z,12.70
2019-03-01T16:49:06.908Z,8.90
2019-03-01T16:51:35.309Z,12.07
2019-03-01T16:54:03.350Z,15.30
2019-03-01T16:56:34.635Z,7.57
2019-03-01T16:59:03.465Z,12.67
2019-03-01T17:01:32.786Z,24.63
2019-03-01T17:04:00.966Z,17.00
2019-03-01T17:06:29.634Z,11.87
2019-03-01T17:08:57.874Z,16.17
2019-03-01T17:11:26.441Z,12.10
2019-03-01T17:13:54.522Z,15.27
2019-03-01T17:16:23.823Z,16.33
2019-03-01T17:18:53.080Z,12.17
2019-03-01T17:21:21.662Z,9.13
2019-03-01T17:23:49.688Z,16.67
2019-03-01T17:26:18.073Z,18.23
2019-03-01T17:28:46.125Z,8.80
2019-03-01T17:31:14.567Z,11.07
2019-03-01T17:33:45.038Z,18.93
2019-03-01T17:36:16.765Z,10.97
2019-03-01T17:38:45.902Z,22.20
2019-03-01T17:41:13.417Z,16.70
2019-03-01T17:43:41.582Z,19.13
2019-03-01T17:46:09.882Z,16.47
2019-03-01T17:48:38.046Z,15.87
2019-03-01T17:51:06.050Z,16.60
2019-03-01T17:53:34.485Z,19.63
2019-03-01T17:56:02.607Z,17.43
2019-03-01T17:58:41.816Z,20.70
2019-03-01T18:01:09.985Z,21.07
2019-03-01T18:03:38.023Z,23.85
2019-03-01T18:06:06.655Z,14.23
2019-03-01T18:08:35.877Z,13.67
2019-03-01T18:11:14.703Z,22.03
2019-03-01T18:13:42.477Z,20.90
2019-03-01T18:16:10.653Z,15.43
2019-03-01T18:18:39.855Z,19.40
2019-03-01T18:21:10.187Z,23.30
2019-03-01T18:23:38.997Z,17.73
2019-03-01T18:26:07.772Z,26.63
2019-03-01T18:28:36.047Z,21.20
2019-03-01T18:31:05.266Z,13.03
2019-03-01T18:33:33.918Z,21.70
2019-03-01T18:36:04.439Z,15.33
2019-03-01T18:38:33.534Z,17.67
2019-03-01T18:41:01.929Z,18.03
2019-03-01T18:43:30.617Z,14.67
2019-03-01T18:45:58.729Z,15.53
2019-03-01T18:48:26.631Z,15.47
2019-03-01T18:50:54.910Z,20.10
2019-03-01T18:53:24.995Z,25.20
2019-03-01T18:55:53.703Z,16.60
2019-03-01T18:58:24.438Z,22.30
2019-03-01T19:00:52.787Z,24.67
2019-03-01T19:03:20.662Z,24.47
2019-03-01T19:05:48.440Z,11.90
2019-03-01T19:08:16.187Z,22.13
2019-03-01T19:10:43.985Z,18.50
2019-03-01T19:13:12.842Z,16.03
2019-03-01T19:15:40.591Z,15.33
2019-03-01T19:18:09.133Z,32.30
2019-03-01T19:20:37.881Z,22.17
2019-03-01T19:23:06.537Z,18.07
2019-03-01T19:25:34.233Z,25.57
2019-03-01T19:28:02.326Z,19.03
2019-03-01T19:30:30.026Z,21.17
2019-03-01T19:32:58.916Z,21.65
2019-03-01T19:35:29.779Z,20.90
2019-03-01T19:37:56.741Z,23.27
2019-03-01T19:40:24.816Z,28.42
2019-03-01T19:42:53.416Z,33.00
2019-03-01T19:45:21.691Z,28.32
2019-03-01T19:47:51.394Z,15.33
2019-03-01T19:50:21.733Z,16.00
2019-03-01T19:52:50.495Z,15.50
2019-03-01T19:55:18.685Z,22.43
2019-03-01T19:57:46.789Z,21.93
2019-03-01T20:00:16.953Z,16.90
2019-03-01T20:02:45.021Z,29.17
2019-03-01T20:05:15.442Z,22.00
2019-03-01T20:07:43.254Z,32.53
2019-03-01T20:10:15.098Z,25.27
2019-03-01T20:12:41.830Z,23.13
2019-03-01T20:15:12.518Z,29.33
2019-03-01T20:17:44.337Z,16.57
2019-03-01T20:20:11.858Z,27.07
2019-03-01T20:22:40.175Z,18.63
2019-03-01T20:25:12.716Z,24.90
2019-03-01T20:27:40.250Z,15.03
2019-03-01T20:30:14.369Z,16.33
2019-03-01T20:32:43.228Z,20.53
2019-03-01T20:35:12.893Z,17.63
2019-03-01T20:37:42.102Z,19.70
2019-03-01T20:40:09.884Z,18.13
2019-03-01T20:42:38.570Z,24.93
2019-03-01T20:45:09.358Z,21.83
2019-03-01T20:47:37.070Z,20.13
2019-03-01T20:50:05.250Z,21.23
2019-03-01T20:52:34.870Z,21.00
2019-03-01T20:55:03.027Z,26.13
2019-03-01T20:57:31.040Z,17.70
2019-03-01T20:59:59.137Z,32.53
2019-03-01T21:02:26.877Z,23.40
2019-03-01T21:04:54.581Z,22.23
2019-03-01T21:07:22.409Z,23.63
2019-03-01T21:09:51.149Z,22.13
2019-03-01T21:12:18.868Z,26.53
2019-03-01T21:14:46.618Z,20.23
2019-03-01T21:17:16.715Z,20.40
2019-03-01T21:19:44.597Z,26.97
2019-03-01T21:22:12.840Z,29.03
2019-03-01T21:24:40.557Z,28.77
2019-03-01T21:27:09.007Z,22.27
2019-03-01T21:29:36.702Z,27.27
2019-03-01T21:32:04.489Z,30.13
2019-03-01T21:34:34.869Z,29.73
2019-03-01T21:37:02.672Z,21.97
2019-03-01T21:39:31.708Z,26.03
2019-03-01T21:41:59.419Z,18.97
2019-03-01T21:44:27.166Z,23.83
2019-03-01T21:46:54.894Z,22.90
2019-03-01T21:49:22.625Z,29.50
2019-03-01T21:51:51.747Z,31.20
2019-03-01T21:54:20.337Z,21.60
2019-03-01T21:57:14.271Z,29.77
2019-03-01T21:59:18.569Z,26.93
2019-03-01T22:01:46.875Z,32.60
2019-03-01T22:04:14.643Z,30.90
2019-03-01T22:06:42.477Z,34.83
2019-03-01T22:09:10.283Z,31.77
2019-03-01T22:11:38.022Z,26.83
2019-03-01T22:14:07.521Z,28.23
2019-03-01T22:16:37.196Z,21.83
2019-03-01T22:19:07.253Z,38.43
2019-03-01T22:21:36.015Z,34.03
2019-03-01T22:24:04.364Z,21.90
2019-03-01T22:26:32.471Z,31.83
2019-03-01T22:29:00.696Z,36.77
2019-03-01T22:31:28.604Z,40.77
2019-03-01T22:33:57.607Z,27.33
2019-03-01T22:36:26.323Z,34.40
2019-03-01T22:38:54.346Z,24.10
2019-03-01T22:41:22.543Z,19.73
2019-03-01T22:43:50.597Z,23.67
2019-03-01T22:46:21.061Z,23.53
2019-03-01T22:48:53.231Z,29.23
2019-03-01T22:51:19.249Z,25.90
2019-03-01T22:53:48.614Z,22.87
2019-03-01T22:56:16.918Z,24.57
2019-03-01T22:58:44.654Z,26.47
2019-03-01T23:01:20.291Z,32.93
2019-03-01T23:03:55.945Z,26.67
2019-03-01T23:06:23.614Z,23.33
2019-03-01T23:08:51.479Z,38.73
2019-03-01T23:11:19.881Z,32.27
2019-03-01T23:13:47.950Z,18.47
2019-03-01T23:16:18.768Z,30.33
2019-03-01T23:18:46.229Z,34.00
2019-03-01T23:21:14.628Z,28.60
2019-03-01T23:23:42.764Z,29.13
2019-03-01T23:26:10.958Z,37.87
2019-03-01T23:28:40.854Z,29.20
2019-03-01T23:31:09.333Z,28.90
2019-03-01T23:33:38.003Z,28.03
2019-03-01T23:36:06.718Z,37.00
2019-03-01T23:38:35.391Z,25.57
2019-03-01T23:41:03.794Z,24.77
2019-03-01T23:43:31.983Z,33.50
2019-03-01T23:46:01.638Z,29.07
2019-03-01T23:48:29.847Z,28.00
2019-03-01T23:50:59.182Z,39.03
2019-03-01T23:53:27.516Z,23.17
2019-03-01T23:55:55.884Z,30.63
2019-03-01T23:58:24.707Z,25.47
